createdAt,value
2017-04-02T00:00:27.311Z,93.9
2017-04-02T00:01:30.024Z,93.9
2017-04-02T00:02:33.125Z,93.9
2017-04-02T00:03:35.470Z,93.9
2017-04-02T00:04:38.318Z,93.9
2017-04-02T00:05:41.170Z,93.9
2017-04-02T00:06:44.017Z,93.9
2017-04-02T00:07:46.981Z,93.9
2017-04-02T00:08:49.320Z,93.9
2017-04-02T00:09:52.728Z,93.9
2017-04-02T00:10:54.630Z,93.9
2017-04-02T00:11:57.475Z,93.9
2017-04-02T00:13:00.576Z,93.9
2017-04-02T00:14:02.927Z,93.9
2017-04-02T00:15:05.775Z,93.9
2017-04-02T00:16:08.624Z,93.9
2017-04-02T00:17:11.209Z,93.9
2017-04-02T00:18:14.308Z,93.9
2017-04-02T00:20:19.559Z,93.9
2017-04-02T00:21:21.903Z,93.9
2017-04-02T00:22:24.748Z,93.9
2017-04-02T00:23:27.847Z,93.9
2017-04-02T00:24:30.055Z,93.9
2017-04-02T00:25:32.776Z,93.9
2017-04-02T00:26:35.623Z,93.9
2017-04-02T00:27:38.477Z,93.9
2017-04-02T00:28:41.631Z,93.9
2017-04-02T00:29:43.980Z,93.9
2017-04-02T00:30:46.825Z,93.9
2017-04-02T00:31:49.177Z,93.9
2017-04-02T00:32:52.104Z,93.9
2017-04-02T00:33:55.077Z,93.9
2017-04-02T00:34:57.422Z,93.9
2017-04-02T00:36:00.274Z,93.9
2017-04-02T00:37:02.993Z,93.9
2017-04-02T00:38:05.851Z,93.8
2017-04-02T00:39:08.817Z,93.8
2017-04-02T00:40:11.159Z,93.8
2017-04-02T00:41:14.008Z,93.8
2017-04-02T00:42:16.860Z,93.8
2017-04-02T00:43:19.203Z,93.8
2017-04-02T00:44:22.353Z,93.8
2017-04-02T00:45:24.694Z,93.8
2017-04-02T00:46:27.415Z,93.8
2017-04-02T00:47:30.266Z,93.8
2017-04-02T00:48:33.111Z,93.8
2017-04-02T00:49:36.208Z,93.8
2017-04-02T00:50:38.553Z,93.8
2017-04-02T00:51:41.402Z,93.8
2017-04-02T00:52:44.287Z,93.8
2017-04-02T00:53:46.631Z,93.8
2017-04-02T00:54:49.736Z,93.8
2017-04-02T00:55:52.077Z,93.8
2017-04-02T00:56:54.789Z,93.8
2017-04-02T00:57:57.633Z,93.8
2017-04-02T00:59:00.478Z,93.8
2017-04-02T01:00:03.445Z,93.8
2017-04-02T01:01:05.793Z,93.9
2017-04-02T01:02:08.654Z,93.9
2017-04-02T01:03:11.502Z,93.9
2017-04-02T01:04:13.847Z,93.9
2017-04-02T01:05:16.997Z,93.9
2017-04-02T01:06:19.338Z,93.9
2017-04-02T01:07:22.182Z,93.9
2017-04-02T01:08:25.032Z,93.9
2017-04-02T01:09:27.301Z,93.8
2017-04-02T01:10:30.770Z,93.8
2017-04-02T01:11:33.111Z,93.8
2017-04-02T01:12:35.957Z,93.8
2017-04-02T01:13:38.807Z,93.8
2017-04-02T01:14:41.150Z,93.8
2017-04-02T01:15:44.252Z,93.8
2017-04-02T01:16:46.604Z,93.8
2017-04-02T01:17:49.320Z,93.8
2017-04-02T01:18:52.429Z,93.9
2017-04-02T01:19:54.772Z,93.9
2017-04-02T01:20:57.738Z,93.9
2017-04-02T01:22:00.458Z,93.9
2017-04-02T01:23:03.306Z,93.9
2017-04-02T01:24:05.677Z,93.9
2017-04-02T01:25:08.534Z,93.9
2017-04-02T01:26:11.633Z,93.9
2017-04-02T01:27:13.974Z,93.9
2017-04-02T01:28:16.823Z,93.9
2017-04-02T01:29:19.675Z,93.9
2017-04-02T01:30:22.021Z,93.9
2017-04-02T01:31:25.038Z,93.9
2017-04-02T01:32:27.879Z,93.9
2017-04-02T01:33:30.594Z,93.9
2017-04-02T01:34:32.938Z,93.9
2017-04-02T01:35:35.780Z,93.9
2017-04-02T01:36:38.879Z,93.9
2017-04-02T01:37:41.225Z,93.9
2017-04-02T01:38:44.103Z,93.9
2017-04-02T01:39:46.951Z,94
2017-04-02T01:40:49.295Z,94
2017-04-02T01:41:52.391Z,94
2017-04-02T01:42:54.741Z,94
2017-04-02T01:43:57.602Z,94
2017-04-02T01:45:00.449Z,94
2017-04-02T01:46:03.297Z,94
2017-04-02T01:47:05.899Z,94
2017-04-02T01:48:08.743Z,94
2017-04-02T01:49:11.088Z,94
2017-04-02T01:50:13.799Z,94
2017-04-02T01:51:16.640Z,94
2017-04-02T01:52:19.604Z,94
2017-04-02T01:53:22.330Z,94
2017-04-02T01:54:24.674Z,94
2017-04-02T01:55:27.524Z,94
2017-04-02T01:56:30.392Z,94
2017-04-02T01:57:33.493Z,94
2017-04-02T01:58:35.838Z,94
2017-04-02T01:59:38.679Z,94
2017-04-02T02:00:41.021Z,94
2017-04-02T02:01:43.872Z,94
2017-04-02T02:02:46.845Z,94
2017-04-02T02:03:49.194Z,94
2017-04-02T02:04:51.910Z,94
2017-04-02T02:05:54.755Z,94
2017-04-02T02:06:57.604Z,94
2017-04-02T02:08:00.574Z,94
2017-04-02T02:09:02.917Z,94
2017-04-02T02:10:05.777Z,94
2017-04-02T02:12:10.902Z,94
2017-04-02T02:13:13.865Z,94
2017-04-02T02:14:16.718Z,94.1
2017-04-02T02:15:19.066Z,94
2017-04-02T02:16:21.916Z,94
2017-04-02T02:17:24.764Z,94
2017-04-02T02:18:27.788Z,94
2017-04-02T02:19:30.137Z,94
2017-04-02T02:20:32.991Z,94
2017-04-02T02:21:35.334Z,94
2017-04-02T02:22:38.177Z,94
2017-04-02T02:23:41.324Z,94
2017-04-02T02:24:43.533Z,94
2017-04-02T02:25:46.381Z,94
2017-04-02T02:26:49.231Z,94
2017-04-02T02:27:52.074Z,94
2017-04-02T02:28:54.718Z,94
2017-04-02T02:29:57.062Z,94
2017-04-02T02:30:59.778Z,94
2017-04-02T02:33:05.540Z,94
2017-04-02T02:34:08.198Z,94
2017-04-02T02:35:11.054Z,94
2017-04-02T02:36:13.405Z,94
2017-04-02T02:37:16.251Z,94
2017-04-02T02:38:19.096Z,94
2017-04-02T02:39:22.197Z,94
2017-04-02T02:40:24.544Z,94
2017-04-02T02:41:27.392Z,94
2017-04-02T02:42:29.966Z,94
2017-04-02T02:43:32.813Z,94
2017-04-02T02:44:35.418Z,94
2017-04-02T02:45:37.760Z,94
2017-04-02T02:46:40.606Z,94
2017-04-02T02:47:43.453Z,94
2017-04-02T02:48:46.301Z,94
2017-04-02T02:49:48.990Z,94
2017-04-02T02:50:51.338Z,94
2017-04-02T02:51:54.186Z,94
2017-04-02T02:52:56.894Z,94
2017-04-02T02:53:59.745Z,94
2017-04-02T02:55:02.897Z,94
2017-04-02T02:56:04.969Z,94
2017-04-02T02:57:07.816Z,94
2017-04-02T02:58:10.714Z,94
2017-04-02T02:59:13.059Z,94
2017-04-02T03:00:15.943Z,94
2017-04-02T03:01:18.789Z,94
2017-04-02T03:03:24.046Z,94
2017-04-02T03:04:26.894Z,94
2017-04-02T03:05:29.594Z,94
2017-04-02T03:06:32.439Z,94
2017-04-02T03:07:34.777Z,93.9
2017-04-02T03:08:37.622Z,93.9
2017-04-02T03:09:40.464Z,93.9
2017-04-02T03:10:43.560Z,93.9
2017-04-02T03:11:45.903Z,93.9
2017-04-02T03:12:48.241Z,93.9
2017-04-02T03:13:51.087Z,93.9
2017-04-02T03:14:53.838Z,93.9
2017-04-02T03:15:56.987Z,93.9
2017-04-02T03:16:59.329Z,93.9
2017-04-02T03:18:02.169Z,93.9
2017-04-02T03:19:04.510Z,93.9
2017-04-02T03:20:07.255Z,93.9
2017-04-02T03:21:10.586Z,93.9
2017-04-02T03:22:12.929Z,93.9
2017-04-02T03:23:16.181Z,93.9
2017-04-02T03:24:18.029Z,93.9
2017-04-02T03:25:20.877Z,93.9
2017-04-02T03:26:23.890Z,93.9
2017-04-02T03:27:26.230Z,93.9
2017-04-02T03:28:29.080Z,93.9
2017-04-02T03:29:31.920Z,93.9
2017-04-02T03:30:34.764Z,93.8
2017-04-02T03:31:37.641Z,93.8
2017-04-02T03:32:39.983Z,93.8
2017-04-02T03:33:42.823Z,93.8
2017-04-02T03:34:45.162Z,93.8
2017-04-02T03:35:47.872Z,93.8
2017-04-02T03:36:51.020Z,93.8
2017-04-02T03:37:53.360Z,93.8
2017-04-02T03:38:56.207Z,93.8
2017-04-02T03:39:59.049Z,93.8
2017-04-02T03:41:01.757Z,93.8
2017-04-02T03:42:04.768Z,93.8
2017-04-02T03:43:07.109Z,93.7
2017-04-02T03:44:09.449Z,93.7
2017-04-02T03:45:12.155Z,93.7
2017-04-02T03:46:14.863Z,93.7
2017-04-02T03:47:18.008Z,93.7
2017-04-02T03:48:20.347Z,93.7
2017-04-02T03:49:23.201Z,93.7
2017-04-02T03:50:26.049Z,93.7
2017-04-02T03:51:28.394Z,93.7
2017-04-02T03:52:31.539Z,93.7
2017-04-02T03:53:33.881Z,93.7
2017-04-02T03:54:36.724Z,93.7
2017-04-02T03:55:39.568Z,93.7
2017-04-02T03:56:41.905Z,93.7
2017-04-02T03:57:45.050Z,93.7
2017-04-02T03:58:47.388Z,93.7
2017-04-02T03:59:50.238Z,93.7
2017-04-02T04:00:53.089Z,93.7
2017-04-02T04:01:55.425Z,93.7
2017-04-02T04:02:58.573Z,93.7
2017-04-02T04:04:00.910Z,93.7
2017-04-02T04:05:03.618Z,93.7
2017-04-02T04:06:06.462Z,93.7
2017-04-02T04:07:09.172Z,93.7
2017-04-02T04:08:12.317Z,93.7
2017-04-02T04:09:14.656Z,93.7
2017-04-02T04:10:16.993Z,93.7
2017-04-02T04:11:19.835Z,93.7
2017-04-02T04:12:22.678Z,93.7
2017-04-02T04:13:25.825Z,93.7
2017-04-02T04:14:28.186Z,93.7
2017-04-02T04:15:30.532Z,93.7
2017-04-02T04:16:33.372Z,93.6
2017-04-02T04:17:36.284Z,93.6
2017-04-02T04:18:39.244Z,93.6
2017-04-02T04:19:41.587Z,93.6
2017-04-02T04:20:44.435Z,93.6
2017-04-02T04:21:46.646Z,93.7
2017-04-02T04:22:49.486Z,93.7
2017-04-02T04:23:52.638Z,93.7
2017-04-02T04:24:54.980Z,93.7
2017-04-02T04:25:57.824Z,93.6
2017-04-02T04:27:00.166Z,93.6
2017-04-02T04:28:03.016Z,93.6
2017-04-02T04:29:05.978Z,93.6
2017-04-02T04:30:08.185Z,93.6
2017-04-02T04:31:11.029Z,93.6
2017-04-02T04:32:13.871Z,93.6
2017-04-02T04:33:16.584Z,93.6
2017-04-02T04:34:19.549Z,93.6
2017-04-02T04:35:21.889Z,93.6
2017-04-02T04:36:24.768Z,93.6
2017-04-02T04:37:27.112Z,93.6
2017-04-02T04:38:29.832Z,93.6
2017-04-02T04:39:32.976Z,93.7
2017-04-02T04:40:35.452Z,93.7
2017-04-02T04:41:38.293Z,93.7
2017-04-02T04:42:40.629Z,93.7
2017-04-02T04:43:43.334Z,93.7
2017-04-02T04:44:46.292Z,93.7
2017-04-02T04:45:49.133Z,93.7
2017-04-02T04:46:51.470Z,93.7
2017-04-02T04:47:54.311Z,93.7
2017-04-02T04:48:57.158Z,93.7
2017-04-02T04:49:59.803Z,93.7
2017-04-02T04:51:02.644Z,93.7
2017-04-02T04:52:04.990Z,93.7
2017-04-02T04:53:07.704Z,93.7
2017-04-02T04:54:10.548Z,93.7
2017-04-02T04:55:13.650Z,93.7
2017-04-02T04:56:15.993Z,93.7
2017-04-02T04:57:18.834Z,93.7
2017-04-02T04:58:21.180Z,93.7
2017-04-02T04:59:24.032Z,93.7
2017-04-02T05:00:26.996Z,93.7
2017-04-02T05:01:29.340Z,93.7
2017-04-02T05:02:32.182Z,93.7
2017-04-02T05:03:34.524Z,93.8
2017-04-02T05:04:37.228Z,93.8
2017-04-02T05:05:40.189Z,93.8
2017-04-02T05:06:43.033Z,93.8
2017-04-02T05:07:45.385Z,93.8
2017-04-02T05:08:48.270Z,93.9
2017-04-02T05:09:51.117Z,93.9
2017-04-02T05:10:53.708Z,93.9
2017-04-02T05:11:56.554Z,93.9
2017-04-02T05:12:58.893Z,94
2017-04-02T05:14:01.736Z,94
2017-04-02T05:15:04.446Z,94
2017-04-02T05:16:07.594Z,94
2017-04-02T05:17:09.935Z,94
2017-04-02T05:18:12.278Z,94
2017-04-02T05:19:14.991Z,94
2017-04-02T05:20:17.839Z,94
2017-04-02T05:21:20.938Z,94
2017-04-02T05:22:23.277Z,94.1
2017-04-02T05:23:26.132Z,94.1
2017-04-02T05:24:28.472Z,94.1
2017-04-02T05:25:31.221Z,94.1
2017-04-02T05:26:34.231Z,94.1
2017-04-02T05:27:36.500Z,94.1
2017-04-02T05:28:39.346Z,94.1
2017-04-02T05:29:42.062Z,94.1
2017-04-02T05:30:44.905Z,94.1
2017-04-02T05:31:47.865Z,94.1
2017-04-02T05:32:50.207Z,94.1
2017-04-02T05:33:53.060Z,94.1
2017-04-02T05:34:55.908Z,94.1
2017-04-02T05:35:58.245Z,94.2
2017-04-02T05:37:01.258Z,94.2
2017-04-02T05:38:03.602Z,94.2
2017-04-02T05:39:06.447Z,94.2
2017-04-02T05:40:09.158Z,94.2
2017-04-02T05:41:12.002Z,94.2
2017-04-02T05:42:15.149Z,94.2
2017-04-02T05:43:17.488Z,94.2
2017-04-02T05:44:19.829Z,94.2
2017-04-02T05:45:22.671Z,94.2
2017-04-02T05:46:25.417Z,94.2
2017-04-02T05:47:28.562Z,94.2
2017-04-02T05:48:30.899Z,94.2
2017-04-02T05:49:33.748Z,94.2
2017-04-02T05:50:36.120Z,94.2
2017-04-02T05:51:38.962Z,94.2
2017-04-02T05:52:42.111Z,94.2
2017-04-02T05:54:46.904Z,94.3
2017-04-02T05:55:49.751Z,94.3
2017-04-02T05:56:52.594Z,94.3
2017-04-02T05:57:55.274Z,94.3
2017-04-02T05:58:57.620Z,94.3
2017-04-02T06:00:00.462Z,94.3
2017-04-02T06:01:03.308Z,94.3
2017-04-02T06:02:06.149Z,94.3
2017-04-02T06:03:09.160Z,94.3
2017-04-02T06:04:11.500Z,94.3
2017-04-02T06:05:13.840Z,94.3
2017-04-02T06:06:16.687Z,94.3
2017-04-02T06:07:19.538Z,94.3
2017-04-02T06:08:22.686Z,94.3
2017-04-02T06:09:25.023Z,94.3
2017-04-02T06:10:27.366Z,94.3
2017-04-02T06:11:30.204Z,94.4
2017-04-02T06:12:32.916Z,94.4
2017-04-02T06:13:36.063Z,94.4
2017-04-02T06:14:38.406Z,94.4
2017-04-02T06:15:41.253Z,94.4
2017-04-02T06:16:44.100Z,94.4
2017-04-02T06:17:46.437Z,94.4
2017-04-02T06:18:49.768Z,94.4
2017-04-02T06:19:52.107Z,94.4
2017-04-02T06:20:54.453Z,94.4
2017-04-02T06:21:57.304Z,94.4
2017-04-02T06:23:00.143Z,94.4
2017-04-02T06:24:03.238Z,94.4
2017-04-02T06:25:05.580Z,94.4
2017-04-02T06:26:08.429Z,94.4
2017-04-02T06:27:11.346Z,94.4
2017-04-02T06:28:13.683Z,94.4
2017-04-02T06:29:16.833Z,94.5
2017-04-02T06:30:19.177Z,94.4
2017-04-02T06:31:22.022Z,94.5
2017-04-02T06:33:27.276Z,94.5
2017-04-02T06:34:30.424Z,94.5
2017-04-02T06:35:32.631Z,94.4
2017-04-02T06:36:35.339Z,94.4
2017-04-02T06:37:38.181Z,94.5
2017-04-02T06:38:40.520Z,94.5
2017-04-02T06:39:43.666Z,94.5
2017-04-02T06:40:46.010Z,94.5
2017-04-02T06:41:48.892Z,94.5
2017-04-02T06:42:51.738Z,94.5
2017-04-02T06:43:54.079Z,94.5
2017-04-02T06:44:57.175Z,94.5
2017-04-02T06:45:59.512Z,94.5
2017-04-02T06:47:02.590Z,94.5
2017-04-02T06:48:04.966Z,94.5
2017-04-02T06:49:07.814Z,94.5
2017-04-02T06:50:11.473Z,94.5
2017-04-02T06:51:13.310Z,94.5
2017-04-02T06:52:16.159Z,94.5
2017-04-02T06:53:19.057Z,94.5
2017-04-02T06:54:21.464Z,94.5
2017-04-02T06:55:24.571Z,94.5
2017-04-02T06:56:26.917Z,94.5
2017-04-02T06:57:29.626Z,94.5
2017-04-02T06:58:32.333Z,94.5
2017-04-02T06:59:35.181Z,94.5
2017-04-02T07:00:38.382Z,94.5
2017-04-02T07:01:40.213Z,94.5
2017-04-02T07:02:43.062Z,94.5
2017-04-02T07:03:45.903Z,94.5
2017-04-02T07:04:48.744Z,94.6
2017-04-02T07:05:51.388Z,94.6
2017-04-02T07:06:53.728Z,94.6
2017-04-02T07:07:56.436Z,94.6
2017-04-02T07:08:59.333Z,94.5
2017-04-02T07:10:02.182Z,94.5
2017-04-02T07:11:05.277Z,94.6
2017-04-02T07:12:07.484Z,94.6
2017-04-02T07:13:10.377Z,94.6
2017-04-02T07:14:12.724Z,94.6
2017-04-02T07:15:15.570Z,94.6
2017-04-02T07:16:18.529Z,94.6
2017-04-02T07:17:20.875Z,94.6
2017-04-02T07:18:23.715Z,94.6
2017-04-02T07:19:26.564Z,94.6
2017-04-02T07:20:29.409Z,94.6
2017-04-02T07:21:32.003Z,94.6
2017-04-02T07:22:34.844Z,94.6
2017-04-02T07:23:37.183Z,94.6
2017-04-02T07:24:40.024Z,94.6
2017-04-02T07:25:42.870Z,94.6
2017-04-02T07:26:45.965Z,94.6
2017-04-02T07:27:48.306Z,94.6
2017-04-02T07:28:51.151Z,94.6
2017-04-02T07:29:53.494Z,94.6
2017-04-02T07:30:56.339Z,94.6
2017-04-02T07:31:59.481Z,94.6
2017-04-02T07:33:01.825Z,94.6
2017-04-02T07:34:04.669Z,94.6
2017-04-02T07:35:07.512Z,94.6
2017-04-02T07:36:09.731Z,94.6
2017-04-02T07:37:13.200Z,94.6
2017-04-02T07:38:15.469Z,94.6
2017-04-02T07:39:18.181Z,94.6
2017-04-02T07:40:21.082Z,94.6
2017-04-02T07:41:23.425Z,94.6
2017-04-02T07:42:26.520Z,94.6
2017-04-02T07:43:28.872Z,94.6
2017-04-02T07:44:31.713Z,94.6
2017-04-02T07:45:34.556Z,94.6
2017-04-02T07:46:37.397Z,94.6
2017-04-02T07:47:39.992Z,94.6
2017-04-02T07:48:42.699Z,94.6
2017-04-02T07:49:45.544Z,94.6
2017-04-02T07:50:47.885Z,94.6
2017-04-02T07:51:50.595Z,94.6
2017-04-02T07:52:53.692Z,94.6
2017-04-02T07:53:55.894Z,94.6
2017-04-02T07:54:58.740Z,94.6
2017-04-02T07:56:01.613Z,94.6
2017-04-02T07:57:04.462Z,94.6
2017-04-02T07:58:07.475Z,94.6
2017-04-02T07:59:09.825Z,94.6
2017-04-02T08:00:12.535Z,94.6
2017-04-02T08:01:15.243Z,94.6
2017-04-02T08:02:18.089Z,94.6
2017-04-02T08:03:21.190Z,94.6
2017-04-02T08:04:23.527Z,94.6
2017-04-02T08:05:26.365Z,94.5
2017-04-02T08:06:28.704Z,94.5
2017-04-02T08:07:31.547Z,94.5
2017-04-02T08:08:34.376Z,94.5
2017-04-02T08:09:37.223Z,94.5
2017-04-02T08:10:39.566Z,94.5
2017-04-02T08:11:42.408Z,94.5
2017-04-02T08:12:45.249Z,94.5
2017-04-02T08:13:48.343Z,94.5
2017-04-02T08:14:50.686Z,94.5
2017-04-02T08:15:53.400Z,94.5
2017-04-02T08:16:56.113Z,94.5
2017-04-02T08:17:58.957Z,94.5
2017-04-02T08:19:01.920Z,94.4
2017-04-02T08:20:03.989Z,94.4
2017-04-02T08:21:06.835Z,94.3
2017-04-02T08:22:09.548Z,94.3
2017-04-02T08:23:12.399Z,94.3
2017-04-02T08:24:15.497Z,94.2
2017-04-02T08:25:17.840Z,94.2
2017-04-02T08:26:20.684Z,94.2
2017-04-02T08:27:23.393Z,94.2
2017-04-02T08:28:26.101Z,94.2
2017-04-02T08:29:29.258Z,94.1
2017-04-02T08:30:31.596Z,94.1
2017-04-02T08:31:34.438Z,94.1
2017-04-02T08:32:37.280Z,94
2017-04-02T08:33:39.620Z,94
2017-04-02T08:34:42.774Z,94
2017-04-02T08:35:45.115Z,94
2017-04-02T08:36:47.961Z,94
2017-04-02T08:37:50.803Z,94
2017-04-02T08:38:53.648Z,94
2017-04-02T08:39:56.792Z,94
2017-04-02T08:40:58.995Z,94
2017-04-02T08:42:01.705Z,94
2017-04-02T08:43:04.547Z,94
2017-04-02T08:44:07.389Z,94
2017-04-02T08:45:09.984Z,94
2017-04-02T08:46:12.832Z,94
2017-04-02T08:47:15.233Z,94
2017-04-02T08:48:17.940Z,94
2017-04-02T08:49:20.785Z,94
2017-04-02T08:50:23.883Z,94
2017-04-02T08:51:26.224Z,94
2017-04-02T08:52:29.064Z,94.1
2017-04-02T08:53:31.909Z,94.1
2017-04-02T08:54:34.752Z,94.1
2017-04-02T08:55:37.845Z,94.1
2017-04-02T08:56:40.190Z,94.1
2017-04-02T08:57:43.035Z,94.1
2017-04-02T08:58:45.380Z,94.1
2017-04-02T08:59:48.225Z,94.2
2017-04-02T09:00:51.375Z,94.2
2017-04-02T09:01:53.723Z,94.2
2017-04-02T09:02:56.565Z,94.2
2017-04-02T09:03:59.410Z,94.2
2017-04-02T09:05:02.114Z,94.2
2017-04-02T09:06:05.207Z,94.2
2017-04-02T09:07:07.412Z,94.2
2017-04-02T09:08:10.252Z,94.2
2017-04-02T09:09:12.962Z,94.3
2017-04-02T09:10:15.675Z,94.3
2017-04-02T09:11:18.825Z,94.3
2017-04-02T09:12:21.066Z,94.3
2017-04-02T09:13:23.907Z,94.3
2017-04-02T09:14:26.632Z,94.3
2017-04-02T09:15:29.475Z,94.3
2017-04-02T09:16:32.625Z,94.3
2017-04-02T09:17:34.965Z,94.3
2017-04-02T09:18:37.810Z,94.3
2017-04-02T09:19:40.150Z,94.3
2017-04-02T09:20:42.991Z,94.3
2017-04-02T09:21:46.089Z,94.3
2017-04-02T09:22:48.437Z,94.3
2017-04-02T09:23:51.280Z,94.3
2017-04-02T09:24:54.120Z,94.4
2017-04-02T09:25:56.760Z,94.4
2017-04-02T09:26:59.904Z,94.4
2017-04-02T09:28:02.112Z,94.4
2017-04-02T09:29:04.827Z,94.4
2017-04-02T09:30:07.537Z,94.4
2017-04-02T09:31:10.377Z,94.4
2017-04-02T09:32:13.469Z,94.4
2017-04-02T09:33:15.812Z,94.4
2017-04-02T09:34:18.656Z,94.5
2017-04-02T09:35:21.499Z,94.5
2017-04-02T09:36:24.355Z,94.5
2017-04-02T09:37:27.230Z,94.5
2017-04-02T09:38:29.434Z,94.5
2017-04-02T09:39:32.278Z,94.5
2017-04-02T09:40:35.120Z,94.5
2017-04-02T09:41:37.962Z,94.6
2017-04-02T09:42:41.064Z,94.5
2017-04-02T09:43:43.409Z,94.5
2017-04-02T09:44:46.256Z,94.6
2017-04-02T09:45:48.595Z,94.6
2017-04-02T09:46:51.435Z,94.6
2017-04-02T09:47:54.531Z,94.6
2017-04-02T09:48:57.260Z,94.6
2017-04-02T09:49:59.603Z,94.6
2017-04-02T09:51:02.319Z,94.6
2017-04-02T09:52:05.032Z,94.6
2017-04-02T09:53:08.175Z,94.6
2017-04-02T09:54:10.517Z,94.6
2017-04-02T09:55:13.359Z,94.6
2017-04-02T09:56:16.208Z,94.6
2017-04-02T09:57:19.056Z,94.6
2017-04-02T09:58:22.159Z,94.6
2017-04-02T09:59:24.373Z,94.6
2017-04-02T10:00:27.088Z,94.6
2017-04-02T10:01:29.933Z,94.6
2017-04-02T10:02:32.778Z,94.6
2017-04-02T10:03:35.789Z,94.6
2017-04-02T10:04:37.994Z,94.5
2017-04-02T10:05:40.835Z,94.5
2017-04-02T10:07:46.090Z,94.5
2017-04-02T10:08:49.559Z,94.5
2017-04-02T10:09:51.901Z,94.5
2017-04-02T10:10:54.747Z,94.6
2017-04-02T10:11:57.455Z,94.6
2017-04-02T10:12:59.800Z,94.5
2017-04-02T10:14:02.901Z,94.5
2017-04-02T10:15:05.748Z,94.5
2017-04-02T10:16:08.090Z,94.5
2017-04-02T10:17:10.932Z,94.5
2017-04-02T10:18:13.648Z,94.5
2017-04-02T10:19:16.610Z,94.5
2017-04-02T10:20:19.463Z,94.5
2017-04-02T10:21:21.671Z,94.5
2017-04-02T10:22:24.887Z,94.5
2017-04-02T10:23:27.230Z,94.5
2017-04-02T10:24:30.740Z,94.5
2017-04-02T10:25:33.083Z,94.4
2017-04-02T10:26:35.924Z,94.4
2017-04-02T10:27:38.638Z,94.4
2017-04-02T10:28:40.978Z,94.4
2017-04-02T10:29:44.125Z,94.4
2017-04-02T10:30:46.463Z,94.5
2017-04-02T10:31:49.308Z,94.5
2017-04-02T10:32:52.152Z,94.5
2017-04-02T10:33:54.993Z,94.4
2017-04-02T10:36:00.498Z,94.4
2017-04-02T10:37:03.208Z,94.4
2017-04-02T10:38:06.054Z,94.4
2017-04-02T10:39:08.897Z,94.4
2017-04-02T10:40:11.607Z,94.4
2017-04-02T10:41:14.572Z,94.4
2017-04-02T10:42:16.911Z,94.4
2017-04-02T10:43:19.761Z,94.4
2017-04-02T10:44:22.606Z,94.4
2017-04-02T10:45:24.944Z,94.4
2017-04-02T10:46:28.046Z,94.5
2017-04-02T10:47:30.893Z,94.5
2017-04-02T10:48:33.600Z,94.5
2017-04-02T10:49:35.943Z,94.5
2017-04-02T10:50:38.788Z,94.5
2017-04-02T10:51:41.883Z,94.4
2017-04-02T10:52:44.224Z,94.4
2017-04-02T10:53:46.805Z,94.4
2017-04-02T10:54:49.646Z,94.4
2017-04-02T10:55:52.857Z,94.4
2017-04-02T10:56:55.446Z,94.3
2017-04-02T10:57:58.285Z,94.3
2017-04-02T10:59:01.133Z,94.3
2017-04-02T11:00:03.476Z,94.3
2017-04-02T11:01:06.322Z,94.2
2017-04-02T11:02:09.422Z,94.2
2017-04-02T11:04:14.672Z,94.1
2017-04-02T11:05:17.521Z,94.1
2017-04-02T11:06:20.374Z,94.1
2017-04-02T11:07:22.971Z,94.1
2017-04-02T11:08:25.814Z,94.1
2017-04-02T11:09:28.524Z,94.1
2017-04-02T11:10:31.423Z,94.1
2017-04-02T11:11:33.762Z,94.1
2017-04-02T11:12:36.862Z,94.1
2017-04-02T11:13:39.706Z,94.1
2017-04-02T11:14:42.050Z,94.1
2017-04-02T11:15:44.758Z,94
2017-04-02T11:16:48.530Z,94
2017-04-02T11:17:51.233Z,93.9
2017-04-02T11:18:53.074Z,93.9
2017-04-02T11:19:55.917Z,93.8
2017-04-02T11:20:59.374Z,93.8
2017-04-02T11:23:04.372Z,93.7
2017-04-02T11:24:07.080Z,93.7
2017-04-02T11:25:09.653Z,93.7
2017-04-02T11:26:12.498Z,93.8
2017-04-02T11:27:15.277Z,93.7
2017-04-02T11:28:18.375Z,93.7
2017-04-02T11:29:20.575Z,93.7
2017-04-02T11:30:23.655Z,93.7
2017-04-02T11:32:29.411Z,93.6
2017-04-02T11:33:31.998Z,93.6
2017-04-02T11:34:34.838Z,93.6
2017-04-02T11:35:37.683Z,93.6
2017-04-02T11:36:40.115Z,93.6
2017-04-02T11:37:43.017Z,93.6
2017-04-02T11:38:46.114Z,93.6
2017-04-02T11:39:48.459Z,93.6
2017-04-02T11:40:51.301Z,93.5
2017-04-02T11:41:54.149Z,93.5
2017-04-02T11:42:56.992Z,93.6
2017-04-02T11:44:00.136Z,93.5
2017-04-02T11:45:02.482Z,93.5
2017-04-02T11:46:05.329Z,93.6
2017-04-02T11:47:07.912Z,93.6
2017-04-02T11:48:10.758Z,93.6
2017-04-02T11:49:13.768Z,93.5
2017-04-02T11:50:16.108Z,93.5
2017-04-02T11:51:18.952Z,93.6
2017-04-02T11:52:21.674Z,93.6
2017-04-02T11:53:24.530Z,93.6
2017-04-02T11:54:27.676Z,93.6
2017-04-02T11:55:30.012Z,93.6
2017-04-02T11:56:32.724Z,93.5
2017-04-02T11:57:35.568Z,93.5
2017-04-02T11:58:38.410Z,93.5
2017-04-02T12:00:43.779Z,93.5
2017-04-02T12:01:46.626Z,93.5
2017-04-02T12:02:49.470Z,93.5
2017-04-02T12:03:52.312Z,93.5
2017-04-02T12:04:55.026Z,93.6
2017-04-02T12:05:58.173Z,93.6
2017-04-02T12:07:00.515Z,93.6
2017-04-02T12:08:03.366Z,93.6
2017-04-02T12:09:06.253Z,93.7
2017-04-02T12:10:08.958Z,93.6
2017-04-02T12:11:12.105Z,93.6
2017-04-02T12:12:14.448Z,93.5
2017-04-02T12:13:17.155Z,93.5
2017-04-02T12:14:19.862Z,93.5
2017-04-02T12:15:22.709Z,93.5
2017-04-02T12:16:25.804Z,93.5
2017-04-02T12:17:28.145Z,93.5
2017-04-02T12:18:30.986Z,93.5
2017-04-02T12:19:33.833Z,93.5
2017-04-02T12:20:36.677Z,93.5
2017-04-02T12:21:39.362Z,93.5
2017-04-02T12:22:42.067Z,93.5
2017-04-02T12:23:44.911Z,93.5
2017-04-02T12:24:47.755Z,93.5
2017-04-02T12:25:50.093Z,93.4
2017-04-02T12:27:55.968Z,93.3
2017-04-02T12:28:58.817Z,93.3
2017-04-02T12:30:01.158Z,93.3
2017-04-02T12:31:04.001Z,93.3
2017-04-02T12:32:06.846Z,93.3
2017-04-02T12:33:10.187Z,93.2
2017-04-02T12:34:12.526Z,93.2
2017-04-02T12:35:15.371Z,93.1
2017-04-02T12:36:18.085Z,93.1
2017-04-02T12:37:20.791Z,93.1
2017-04-02T12:38:23.936Z,93.1
2017-04-02T12:39:26.280Z,93.1
2017-04-02T12:40:28.988Z,93.2
2017-04-02T12:41:31.699Z,93.2
2017-04-02T12:42:34.404Z,93.3
2017-04-02T12:43:37.867Z,93.3
2017-04-02T12:44:40.212Z,93.3
2017-04-02T12:45:42.923Z,93.4
2017-04-02T12:46:45.634Z,93.4
2017-04-02T12:47:48.477Z,93.4
2017-04-02T12:48:51.624Z,93.5
2017-04-02T12:49:54.001Z,93.5
2017-04-02T12:50:56.710Z,93.5
2017-04-02T12:51:59.553Z,93.5
2017-04-02T12:53:02.395Z,93.4
2017-04-02T12:54:05.495Z,93.4
2017-04-02T12:55:07.833Z,93.3
2017-04-02T12:56:10.676Z,93.3
2017-04-02T12:57:13.523Z,93.3
2017-04-02T12:58:16.371Z,93.2
2017-04-02T12:59:19.465Z,93.1
2017-04-02T13:00:21.806Z,93.1
2017-04-02T13:01:24.691Z,93.1
2017-04-02T13:02:27.534Z,93
2017-04-02T13:03:30.246Z,92.9
2017-04-02T13:04:33.265Z,92.8
2017-04-02T13:05:35.606Z,92.8
2017-04-02T13:06:38.453Z,92.7
2017-04-02T13:07:41.163Z,92.7
2017-04-02T13:08:44.013Z,92.7
2017-04-02T13:09:47.106Z,92.8
2017-04-02T13:10:49.949Z,92.8
2017-04-02T13:11:52.666Z,92.8
2017-04-02T13:12:55.512Z,92.9
2017-04-02T13:13:57.855Z,92.9
2017-04-02T13:15:00.817Z,92.9
2017-04-02T13:16:03.660Z,93
2017-04-02T13:17:06.503Z,93
2017-04-02T13:18:09.349Z,93
2017-04-02T13:19:12.192Z,93
2017-04-02T13:20:14.786Z,93.1
2017-04-02T13:21:17.634Z,93.1
2017-04-02T13:22:20.480Z,93.1
2017-04-02T13:23:23.323Z,93.1
2017-04-02T13:24:25.663Z,93.1
2017-04-02T13:25:28.756Z,93.2
2017-04-02T13:26:31.606Z,93.2
2017-04-02T13:27:34.450Z,93.2
2017-04-02T13:28:37.159Z,93.2
2017-04-02T13:29:40.007Z,93.2
2017-04-02T13:30:43.153Z,93.2
2017-04-02T13:31:45.236Z,93.1
2017-04-02T13:32:48.082Z,92.7
2017-04-02T13:33:50.857Z,82
2017-04-02T13:34:53.699Z,79.4
2017-04-02T13:35:57.353Z,68
2017-04-02T13:36:59.560Z,64.8
2017-04-02T13:38:02.275Z,67.4
2017-04-02T13:39:04.986Z,66.2
2017-04-02T13:40:07.833Z,68.9
2017-04-02T13:41:10.965Z,68.8
2017-04-02T13:42:13.311Z,68.5
2017-04-02T13:43:16.165Z,68.6
2017-04-02T13:44:19.013Z,67.1
2017-04-02T13:45:21.859Z,64.6
2017-04-02T13:46:24.958Z,65.5
2017-04-02T13:47:27.676Z,65.2
2017-04-02T13:48:30.518Z,65.7
2017-04-02T13:49:33.091Z,66.8
2017-04-02T13:50:35.808Z,66.2
2017-04-02T13:51:38.907Z,65.4
2017-04-02T13:52:41.753Z,65
2017-04-02T13:53:44.465Z,64.4
2017-04-02T13:54:47.173Z,64.4
2017-04-02T13:55:50.020Z,64.5
2017-04-02T13:56:53.169Z,64.5
2017-04-02T13:57:55.878Z,64.9
2017-04-02T13:58:58.723Z,64
2017-04-02T14:00:01.572Z,64.8
2017-04-02T14:01:04.977Z,64.4
2017-04-02T14:02:07.489Z,65.4
2017-04-02T14:03:10.374Z,64.1
2017-04-02T14:04:13.216Z,64.7
2017-04-02T14:05:16.060Z,63.3
2017-04-02T14:06:19.461Z,64.1
2017-04-02T14:07:22.103Z,63.4
2017-04-02T14:08:24.309Z,62.6
2017-04-02T14:09:27.152Z,63.5
2017-04-02T14:10:29.998Z,62.6
2017-04-02T14:11:32.847Z,62.2
2017-04-02T14:12:36.445Z,62.1
2017-04-02T14:13:38.788Z,62.9
2017-04-02T14:14:41.686Z,63.1
2017-04-02T14:15:44.589Z,63.9
2017-04-02T14:16:47.429Z,64.4